KTBR/TBR METAR and TAF weather

Enter ICAO airport designator
Station Type Date Time Source
KTBR METAR 2020/09/19 21:35 UTC NOAA

KTBR 192135Z AUTO 04006KT 10SM CLR 21/14 A3010 RMK AO2 T02080141


Station Type Date Time Source
KTBR Decoded METAR 2020/09/19 21:35 UTC NOAA

Statesboro, Statesboro-Bulloch County Airport, GA, United States (KTBR) 32-28-59N 081-44-14W
Sep 19, 2020 - 05:35 PM EDT / 2020.09.19 2135 UTC
Wind: from the NE (040 degrees) at 7 MPH (6 KT):0
Visibility: 10 mile(s):0
Sky conditions: clear
Temperature: 69.4 F (20.8 C)
Dew Point: 57.4 F (14.1 C)
Relative Humidity: 65%
Pressure (altimeter): 30.1 in. Hg (1019 hPa)
ob: KTBR 192135Z AUTO 04006KT 10SM CLR 21/14 A3010 RMK AO2 T02080141
cycle: 21

Station Type Date Time Source
KTBR TAF UTC NOAA

Error!

Example: see airport list